sensor_id;sensor_type;location;lat;lon;timestamp;temperature;humidity
39777;DHT22;25453;48.162;14.510;2022-08-18T00:00:02;26.00;47.90
39777;DHT22;25453;48.162;14.510;2022-08-18T00:02:43;25.90;48.10
39777;DHT22;25453;48.162;14.510;2022-08-18T00:05:26;25.80;48.50
39777;DHT22;25453;48.162;14.510;2022-08-18T00:08:04;25.70;48.80
39777;DHT22;25453;48.162;14.510;2022-08-18T00:10:31;25.60;49.20
39777;DHT22;25453;48.162;14.510;2022-08-18T00:13:06;25.50;49.50
39777;DHT22;25453;48.162;14.510;2022-08-18T00:15:46;25.40;49.70
39777;DHT22;25453;48.162;14.510;2022-08-18T00:18:15;25.40;49.90
39777;DHT22;25453;48.162;14.510;2022-08-18T00:20:49;25.40;50.00
39777;DHT22;25453;48.162;14.510;2022-08-18T00:23:16;25.30;50.10
39777;DHT22;25453;48.162;14.510;2022-08-18T00:25:51;25.30;50.20
39777;DHT22;25453;48.162;14.510;2022-08-18T00:28:18;25.40;50.40
39777;DHT22;25453;48.162;14.510;2022-08-18T00:30:51;25.40;50.50
39777;DHT22;25453;48.162;14.510;2022-08-18T00:33:19;25.40;50.50
39777;DHT22;25453;48.162;14.510;2022-08-18T00:35:52;25.50;50.50
39777;DHT22;25453;48.162;14.510;2022-08-18T00:38:19;25.50;50.50
39777;DHT22;25453;48.162;14.510;2022-08-18T00:40:54;25.50;50.40
39777;DHT22;25453;48.162;14.510;2022-08-18T00:46:13;25.50;50.40
39777;DHT22;25453;48.162;14.510;2022-08-18T00:48:41;25.50;50.40
39777;DHT22;25453;48.162;14.510;2022-08-18T00:51:21;25.50;50.30
39777;DHT22;25453;48.162;14.510;2022-08-18T00:54:32;25.60;50.20
39777;DHT22;25453;48.162;14.510;2022-08-18T00:56:49;25.60;49.90
39777;DHT22;25453;48.162;14.510;2022-08-18T00:59:19;25.70;49.70
39777;DHT22;25453;48.162;14.510;2022-08-18T01:01:53;25.70;49.60
39777;DHT22;25453;48.162;14.510;2022-08-18T01:04:30;25.80;49.50
39777;DHT22;25453;48.162;14.510;2022-08-18T01:07:09;25.80;49.50
39777;DHT22;25453;48.162;14.510;2022-08-18T01:09:38;25.80;49.50
39777;DHT22;25453;48.162;14.510;2022-08-18T01:12:18;25.80;49.50
39777;DHT22;25453;48.162;14.510;2022-08-18T01:15:12;25.70;49.60
39777;DHT22;25453;48.162;14.510;2022-08-18T01:17:56;25.70;49.70
39777;DHT22;25453;48.162;14.510;2022-08-18T01:20:44;25.60;49.80
39777;DHT22;25453;48.162;14.510;2022-08-18T01:23:34;25.60;50.00
39777;DHT22;25453;48.162;14.510;2022-08-18T01:26:08;25.50;50.30
39777;DHT22;25453;48.162;14.510;2022-08-18T01:28:37;25.50;50.40
39777;DHT22;25453;48.162;14.510;2022-08-18T01:31:11;25.50;50.50
39777;DHT22;25453;48.162;14.510;2022-08-18T01:33:45;25.40;50.60
39777;DHT22;25453;48.162;14.510;2022-08-18T01:36:19;25.40;50.60
39777;DHT22;25453;48.162;14.510;2022-08-18T01:38:48;25.40;50.70
39777;DHT22;25453;48.162;14.510;2022-08-18T01:41:22;25.40;50.70
39777;DHT22;25453;48.162;14.510;2022-08-18T01:43:58;25.40;50.70
39777;DHT22;25453;48.162;14.510;2022-08-18T01:46:32;25.50;50.50
39777;DHT22;25453;48.162;14.510;2022-08-18T01:49:06;25.50;50.40
39777;DHT22;25453;48.162;14.510;2022-08-18T01:51:34;25.50;50.40
39777;DHT22;25453;48.162;14.510;2022-08-18T01:54:11;25.50;50.40
39777;DHT22;25453;48.162;14.510;2022-08-18T01:56:39;25.40;50.40
39777;DHT22;25453;48.162;14.510;2022-08-18T01:59:15;25.50;50.40
39777;DHT22;25453;48.162;14.510;2022-08-18T02:01:43;25.40;50.50
39777;DHT22;25453;48.162;14.510;2022-08-18T02:04:20;25.40;50.50
39777;DHT22;25453;48.162;14.510;2022-08-18T02:07:05;25.40;50.70
39777;DHT22;25453;48.162;14.510;2022-08-18T02:09:41;25.40;50.80
39777;DHT22;25453;48.162;14.510;2022-08-18T02:12:16;25.40;50.90
39777;DHT22;25453;48.162;14.510;2022-08-18T02:15:03;25.30;50.90
39777;DHT22;25453;48.162;14.510;2022-08-18T02:17:35;25.30;51.00
39777;DHT22;25453;48.162;14.510;2022-08-18T02:20:10;25.20;51.10
39777;DHT22;25453;48.162;14.510;2022-08-18T02:22:38;25.10;51.20
39777;DHT22;25453;48.162;14.510;2022-08-18T02:25:13;25.10;51.40
39777;DHT22;25453;48.162;14.510;2022-08-18T02:27:40;25.10;51.50
39777;DHT22;25453;48.162;14.510;2022-08-18T02:30:15;25.10;51.50
39777;DHT22;25453;48.162;14.510;2022-08-18T02:32:43;25.10;51.60
39777;DHT22;25453;48.162;14.510;2022-08-18T02:35:16;25.10;51.70
39777;DHT22;25453;48.162;14.510;2022-08-18T02:37:43;25.10;51.70
39777;DHT22;25453;48.162;14.510;2022-08-18T02:40:20;25.10;51.80
39777;DHT22;25453;48.162;14.510;2022-08-18T02:42:47;25.10;51.80
39777;DHT22;25453;48.162;14.510;2022-08-18T02:45:21;25.10;51.80
39777;DHT22;25453;48.162;14.510;2022-08-18T02:47:53;25.00;52.20
39777;DHT22;25453;48.162;14.510;2022-08-18T02:50:26;24.80;52.70
39777;DHT22;25453;48.162;14.510;2022-08-18T02:52:53;24.70;53.30
39777;DHT22;25453;48.162;14.510;2022-08-18T02:55:27;24.50;53.90
39777;DHT22;25453;48.162;14.510;2022-08-18T02:57:54;24.40;54.50
39777;DHT22;25453;48.162;14.510;2022-08-18T03:00:27;24.30;55.00
39777;DHT22;25453;48.162;14.510;2022-08-18T03:03:00;24.20;55.30
39777;DHT22;25453;48.162;14.510;2022-08-18T03:05:34;24.20;55.60
39777;DHT22;25453;48.162;14.510;2022-08-18T03:08:01;24.20;55.70
39777;DHT22;25453;48.162;14.510;2022-08-18T03:10:35;24.20;55.80
39777;DHT22;25453;48.162;14.510;2022-08-18T03:13:15;24.30;55.80
39777;DHT22;25453;48.162;14.510;2022-08-18T03:15:49;24.30;55.90
39777;DHT22;25453;48.162;14.510;2022-08-18T03:18:22;24.30;55.90
39777;DHT22;25453;48.162;14.510;2022-08-18T03:20:55;24.20;56.00
39777;DHT22;25453;48.162;14.510;2022-08-18T03:23:25;24.20;56.10
39777;DHT22;25453;48.162;14.510;2022-08-18T03:26:00;24.20;56.20
39777;DHT22;25453;48.162;14.510;2022-08-18T03:28:34;24.20;56.30
39777;DHT22;25453;48.162;14.510;2022-08-18T03:31:01;24.10;56.40
39777;DHT22;25453;48.162;14.510;2022-08-18T03:33:34;24.00;56.70
39777;DHT22;25453;48.162;14.510;2022-08-18T03:36:08;24.00;56.90
39777;DHT22;25453;48.162;14.510;2022-08-18T03:38:43;23.90;57.10
39777;DHT22;25453;48.162;14.510;2022-08-18T03:41:19;24.00;57.20
39777;DHT22;25453;48.162;14.510;2022-08-18T03:44:14;24.00;57.20
39777;DHT22;25453;48.162;14.510;2022-08-18T03:46:42;23.90;57.30
39777;DHT22;25453;48.162;14.510;2022-08-18T03:49:16;23.90;57.50
39777;DHT22;25453;48.162;14.510;2022-08-18T03:51:44;24.00;57.70
39777;DHT22;25453;48.162;14.510;2022-08-18T03:54:18;24.00;57.70
39777;DHT22;25453;48.162;14.510;2022-08-18T03:56:46;24.00;57.80
39777;DHT22;25453;48.162;14.510;2022-08-18T03:59:21;24.10;57.80
39777;DHT22;25453;48.162;14.510;2022-08-18T04:01:49;24.10;57.70
39777;DHT22;25453;48.162;14.510;2022-08-18T04:04:24;24.10;57.80
39777;DHT22;25453;48.162;14.510;2022-08-18T04:07:00;24.10;57.80
39777;DHT22;25453;48.162;14.510;2022-08-18T04:09:37;24.10;57.80
39777;DHT22;25453;48.162;14.510;2022-08-18T04:12:05;24.10;57.80
39777;DHT22;25453;48.162;14.510;2022-08-18T04:14:52;24.10;57.80
39777;DHT22;25453;48.162;14.510;2022-08-18T04:17:25;24.10;57.80
39777;DHT22;25453;48.162;14.510;2022-08-18T04:19:53;24.10;57.90
39777;DHT22;25453;48.162;14.510;2022-08-18T04:22:27;24.10;58.00
39777;DHT22;25453;48.162;14.510;2022-08-18T04:24:53;24.10;58.00
39777;DHT22;25453;48.162;14.510;2022-08-18T04:27:28;24.10;58.10
39777;DHT22;25453;48.162;14.510;2022-08-18T04:29:58;24.10;58.10
39777;DHT22;25453;48.162;14.510;2022-08-18T04:32:25;24.10;58.20
39777;DHT22;25453;48.162;14.510;2022-08-18T04:34:59;24.10;58.30
39777;DHT22;25453;48.162;14.510;2022-08-18T04:37:28;24.10;58.40
39777;DHT22;25453;48.162;14.510;2022-08-18T04:40:07;24.10;58.50
39777;DHT22;25453;48.162;14.510;2022-08-18T04:42:35;24.20;58.60
39777;DHT22;25453;48.162;14.510;2022-08-18T04:45:09;24.20;58.60
39777;DHT22;25453;48.162;14.510;2022-08-18T04:47:42;24.20;58.60
39777;DHT22;25453;48.162;14.510;2022-08-18T04:50:10;24.20;58.70
39777;DHT22;25453;48.162;14.510;2022-08-18T04:52:45;24.20;58.70
39777;DHT22;25453;48.162;14.510;2022-08-18T04:55:30;24.20;58.90
39777;DHT22;25453;48.162;14.510;2022-08-18T04:58:04;24.20;58.90
39777;DHT22;25453;48.162;14.510;2022-08-18T05:00:31;24.30;58.90
39777;DHT22;25453;48.162;14.510;2022-08-18T05:02:57;24.30;58.90
39777;DHT22;25453;48.162;14.510;2022-08-18T05:05:31;24.30;58.90
39777;DHT22;25453;48.162;14.510;2022-08-18T05:08:04;24.30;59.00
39777;DHT22;25453;48.162;14.510;2022-08-18T05:10:34;24.30;59.00
39777;DHT22;25453;48.162;14.510;2022-08-18T05:13:21;24.40;59.00
39777;DHT22;25453;48.162;14.510;2022-08-18T05:15:56;24.40;59.10
39777;DHT22;25453;48.162;14.510;2022-08-18T05:18:43;24.40;59.20
39777;DHT22;25453;48.162;14.510;2022-08-18T05:21:10;24.40;59.20
39777;DHT22;25453;48.162;14.510;2022-08-18T05:23:46;24.40;59.20
39777;DHT22;25453;48.162;14.510;2022-08-18T05:26:14;24.40;59.30
39777;DHT22;25453;48.162;14.510;2022-08-18T05:28:42;24.40;59.40
39777;DHT22;25453;48.162;14.510;2022-08-18T05:31:36;24.40;59.40
39777;DHT22;25453;48.162;14.510;2022-08-18T05:34:03;24.50;59.50
39777;DHT22;25453;48.162;14.510;2022-08-18T05:39:21;24.50;59.50
39777;DHT22;25453;48.162;14.510;2022-08-18T05:42:04;24.60;59.50
39777;DHT22;25453;48.162;14.510;2022-08-18T05:44:38;24.60;59.50
39777;DHT22;25453;48.162;14.510;2022-08-18T05:49:54;24.60;59.50
39777;DHT22;25453;48.162;14.510;2022-08-18T05:55:21;24.60;59.70
39777;DHT22;25453;48.162;14.510;2022-08-18T05:58:07;24.60;59.60
39777;DHT22;25453;48.162;14.510;2022-08-18T06:00:42;24.70;59.70
39777;DHT22;25453;48.162;14.510;2022-08-18T06:03:29;24.70;59.60
39777;DHT22;25453;48.162;14.510;2022-08-18T06:06:34;24.70;59.80
39777;DHT22;25453;48.162;14.510;2022-08-18T06:09:12;24.70;59.80
39777;DHT22;25453;48.162;14.510;2022-08-18T06:11:49;24.70;59.90
39777;DHT22;25453;48.162;14.510;2022-08-18T06:14:36;24.70;60.00
39777;DHT22;25453;48.162;14.510;2022-08-18T06:17:14;24.80;60.00
39777;DHT22;25453;48.162;14.510;2022-08-18T06:19:59;24.80;59.90
39777;DHT22;25453;48.162;14.510;2022-08-18T06:22:37;24.80;59.90
39777;DHT22;25453;48.162;14.510;2022-08-18T06:25:21;24.90;59.90
39777;DHT22;25453;48.162;14.510;2022-08-18T06:28:25;24.90;60.00
39777;DHT22;25453;48.162;14.510;2022-08-18T06:31:00;24.90;60.00
39777;DHT22;25453;48.162;14.510;2022-08-18T06:41:47;25.00;59.90
39777;DHT22;25453;48.162;14.510;2022-08-18T06:46:55;25.00;59.90
39777;DHT22;25453;48.162;14.510;2022-08-18T06:54:45;25.10;59.80
39777;DHT22;25453;48.162;14.510;2022-08-18T06:57:27;25.10;59.60
39777;DHT22;25453;48.162;14.510;2022-08-18T06:59:57;25.20;59.50
39777;DHT22;25453;48.162;14.510;2022-08-18T07:02:41;25.20;59.40
39777;DHT22;25453;48.162;14.510;2022-08-18T07:05:17;25.30;59.30
39777;DHT22;25453;48.162;14.510;2022-08-18T07:07:46;25.40;59.10
39777;DHT22;25453;48.162;14.510;2022-08-18T07:10:35;25.40;59.10
39777;DHT22;25453;48.162;14.510;2022-08-18T07:13:17;25.40;59.10
39777;DHT22;25453;48.162;14.510;2022-08-18T07:15:52;25.50;58.90
39777;DHT22;25453;48.162;14.510;2022-08-18T07:18:23;25.60;58.90
39777;DHT22;25453;48.162;14.510;2022-08-18T07:21:00;25.60;58.70
39777;DHT22;25453;48.162;14.510;2022-08-18T07:23:35;25.70;58.70
39777;DHT22;25453;48.162;14.510;2022-08-18T07:26:56;25.80;58.60
39777;DHT22;25453;48.162;14.510;2022-08-18T07:29:18;25.80;58.40
39777;DHT22;25453;48.162;14.510;2022-08-18T07:31:53;25.90;58.20
39777;DHT22;25453;48.162;14.510;2022-08-18T07:36:58;25.90;57.90
39777;DHT22;25453;48.162;14.510;2022-08-18T07:43:00;26.00;57.90
39777;DHT22;25453;48.162;14.510;2022-08-18T07:48:09;26.10;57.60
39777;DHT22;25453;48.162;14.510;2022-08-18T07:51:00;26.20;57.50
39777;DHT22;25453;48.162;14.510;2022-08-18T07:59:15;26.20;57.40
39777;DHT22;25453;48.162;14.510;2022-08-18T08:04:38;26.20;57.30
39777;DHT22;25453;48.162;14.510;2022-08-18T08:07:14;26.30;57.40
39777;DHT22;25453;48.162;14.510;2022-08-18T08:10:20;26.30;57.30
39777;DHT22;25453;48.162;14.510;2022-08-18T08:21:39;26.50;56.90
39777;DHT22;25453;48.162;14.510;2022-08-18T08:24:30;26.50;56.90
39777;DHT22;25453;48.162;14.510;2022-08-18T08:32:04;26.60;56.80
39777;DHT22;25453;48.162;14.510;2022-08-18T08:34:42;26.60;56.80
39777;DHT22;25453;48.162;14.510;2022-08-18T08:37:12;26.60;56.80
39777;DHT22;25453;48.162;14.510;2022-08-18T08:39:55;26.60;56.70
39777;DHT22;25453;48.162;14.510;2022-08-18T08:42:37;26.60;56.60
39777;DHT22;25453;48.162;14.510;2022-08-18T08:48:10;26.60;56.90
39777;DHT22;25453;48.162;14.510;2022-08-18T08:50:42;26.60;57.00
39777;DHT22;25453;48.162;14.510;2022-08-18T08:53:19;26.70;57.10
39777;DHT22;25453;48.162;14.510;2022-08-18T08:55:54;26.90;56.90
39777;DHT22;25453;48.162;14.510;2022-08-18T09:01:34;27.10;56.60
39777;DHT22;25453;48.162;14.510;2022-08-18T09:12:37;27.50;55.90
39777;DHT22;25453;48.162;14.510;2022-08-18T09:15:28;27.60;55.80
39777;DHT22;25453;48.162;14.510;2022-08-18T09:18:17;27.70;55.40
39777;DHT22;25453;48.162;14.510;2022-08-18T09:21:08;27.70;54.80
39777;DHT22;25453;48.162;14.510;2022-08-18T09:23:44;27.70;54.90
39777;DHT22;25453;48.162;14.510;2022-08-18T09:26:26;27.80;55.00
39777;DHT22;25453;48.162;14.510;2022-08-18T09:29:21;27.90;55.00
39777;DHT22;25453;48.162;14.510;2022-08-18T09:40:55;28.70;53.90
39777;DHT22;25453;48.162;14.510;2022-08-18T09:44:06;28.90;53.00
39777;DHT22;25453;48.162;14.510;2022-08-18T09:46:52;29.10;52.40
39777;DHT22;25453;48.162;14.510;2022-08-18T09:52:45;29.50;51.30
39777;DHT22;25453;48.162;14.510;2022-08-18T09:57:26;29.90;49.90
39777;DHT22;25453;48.162;14.510;2022-08-18T10:10:41;30.90;47.40
39777;DHT22;25453;48.162;14.510;2022-08-18T10:13:46;31.10;46.80
39777;DHT22;25453;48.162;14.510;2022-08-18T10:16:26;31.30;46.30
39777;DHT22;25453;48.162;14.510;2022-08-18T10:19:27;31.40;46.10
39777;DHT22;25453;48.162;14.510;2022-08-18T10:22:06;31.50;46.40
39777;DHT22;25453;48.162;14.510;2022-08-18T10:25:03;31.70;46.20
39777;DHT22;25453;48.162;14.510;2022-08-18T10:27:50;31.90;46.20
39777;DHT22;25453;48.162;14.510;2022-08-18T10:34:21;32.30;45.60
39777;DHT22;25453;48.162;14.510;2022-08-18T10:36:36;32.40;45.20
39777;DHT22;25453;48.162;14.510;2022-08-18T10:39:06;32.60;44.90
39777;DHT22;25453;48.162;14.510;2022-08-18T10:42:01;32.70;44.50
39777;DHT22;25453;48.162;14.510;2022-08-18T10:44:29;32.80;44.30
39777;DHT22;25453;48.162;14.510;2022-08-18T10:47:05;33.00;44.00
39777;DHT22;25453;48.162;14.510;2022-08-18T10:49:37;33.10;43.70
39777;DHT22;25453;48.162;14.510;2022-08-18T11:00:49;33.70;42.60
39777;DHT22;25453;48.162;14.510;2022-08-18T11:06:16;33.90;42.20
39777;DHT22;25453;48.162;14.510;2022-08-18T11:08:56;34.00;41.80
39777;DHT22;25453;48.162;14.510;2022-08-18T11:11:25;34.10;41.50
39777;DHT22;25453;48.162;14.510;2022-08-18T11:19:52;34.40;41.10
39777;DHT22;25453;48.162;14.510;2022-08-18T11:22:24;34.50;40.90
39777;DHT22;25453;48.162;14.510;2022-08-18T11:25:00;34.50;40.70
39777;DHT22;25453;48.162;14.510;2022-08-18T11:27:30;34.60;40.60
39777;DHT22;25453;48.162;14.510;2022-08-18T11:30:06;34.70;40.50
39777;DHT22;25453;48.162;14.510;2022-08-18T11:32:39;34.70;40.40
39777;DHT22;25453;48.162;14.510;2022-08-18T11:35:43;34.60;40.60
39777;DHT22;25453;48.162;14.510;2022-08-18T11:38:12;34.70;40.40
39777;DHT22;25453;48.162;14.510;2022-08-18T11:41:11;34.80;40.40
39777;DHT22;25453;48.162;14.510;2022-08-18T11:44:01;34.80;40.30
39777;DHT22;25453;48.162;14.510;2022-08-18T11:46:36;34.90;40.20
39777;DHT22;25453;48.162;14.510;2022-08-18T11:49:14;34.90;40.20
39777;DHT22;25453;48.162;14.510;2022-08-18T11:51:59;35.00;40.00
39777;DHT22;25453;48.162;14.510;2022-08-18T11:54:35;35.10;39.60
39777;DHT22;25453;48.162;14.510;2022-08-18T11:59:56;35.10;38.70
39777;DHT22;25453;48.162;14.510;2022-08-18T12:02:26;35.10;38.90
39777;DHT22;25453;48.162;14.510;2022-08-18T12:04:55;35.10;38.70
39777;DHT22;25453;48.162;14.510;2022-08-18T12:07:39;35.10;38.20
39777;DHT22;25453;48.162;14.510;2022-08-18T12:10:24;35.10;38.00
39777;DHT22;25453;48.162;14.510;2022-08-18T12:13:07;35.10;37.80
39777;DHT22;25453;48.162;14.510;2022-08-18T12:15:42;35.10;37.60
39777;DHT22;25453;48.162;14.510;2022-08-18T12:18:16;35.10;37.40
39777;DHT22;25453;48.162;14.510;2022-08-18T12:20:58;35.10;37.40
39777;DHT22;25453;48.162;14.510;2022-08-18T12:23:35;35.20;37.30
39777;DHT22;25453;48.162;14.510;2022-08-18T12:26:17;35.20;37.40
39777;DHT22;25453;48.162;14.510;2022-08-18T12:29:04;35.30;37.40
39777;DHT22;25453;48.162;14.510;2022-08-18T12:31:52;35.40;37.20
39777;DHT22;25453;48.162;14.510;2022-08-18T12:34:27;35.50;37.00
39777;DHT22;25453;48.162;14.510;2022-08-18T12:36:57;35.60;36.70
39777;DHT22;25453;48.162;14.510;2022-08-18T12:39:53;35.60;36.30
39777;DHT22;25453;48.162;14.510;2022-08-18T12:42:23;35.50;36.00
39777;DHT22;25453;48.162;14.510;2022-08-18T12:44:57;35.40;35.80
39777;DHT22;25453;48.162;14.510;2022-08-18T12:47:34;35.20;35.70
39777;DHT22;25453;48.162;14.510;2022-08-18T12:50:10;34.90;35.70
39777;DHT22;25453;48.162;14.510;2022-08-18T12:52:45;34.60;35.80
39777;DHT22;25453;48.162;14.510;2022-08-18T12:55:21;34.30;36.00
39777;DHT22;25453;48.162;14.510;2022-08-18T12:57:48;34.10;36.90
39777;DHT22;25453;48.162;14.510;2022-08-18T13:00:24;34.00;37.40
39777;DHT22;25453;48.162;14.510;2022-08-18T13:02:57;33.90;37.80
39777;DHT22;25453;48.162;14.510;2022-08-18T13:05:25;33.90;37.90
39777;DHT22;25453;48.162;14.510;2022-08-18T13:08:03;33.90;37.70
39777;DHT22;25453;48.162;14.510;2022-08-18T13:10:31;34.00;37.70
39777;DHT22;25453;48.162;14.510;2022-08-18T13:13:18;34.00;37.80
39777;DHT22;25453;48.162;14.510;2022-08-18T13:15:59;34.10;37.50
39777;DHT22;25453;48.162;14.510;2022-08-18T13:18:29;34.10;37.30
39777;DHT22;25453;48.162;14.510;2022-08-18T13:21:03;34.10;37.10
39777;DHT22;25453;48.162;14.510;2022-08-18T13:23:32;34.00;37.10
39777;DHT22;25453;48.162;14.510;2022-08-18T13:26:07;33.90;37.40
39777;DHT22;25453;48.162;14.510;2022-08-18T13:28:35;33.90;37.60
39777;DHT22;25453;48.162;14.510;2022-08-18T13:31:24;33.90;37.60
39777;DHT22;25453;48.162;14.510;2022-08-18T13:33:52;33.90;37.60
39777;DHT22;25453;48.162;14.510;2022-08-18T13:36:30;33.80;37.60
39777;DHT22;25453;48.162;14.510;2022-08-18T13:39:12;33.80;37.80
39777;DHT22;25453;48.162;14.510;2022-08-18T13:41:47;33.70;38.00
39777;DHT22;25453;48.162;14.510;2022-08-18T13:44:15;33.70;38.30
39777;DHT22;25453;48.162;14.510;2022-08-18T13:46:51;33.80;38.50
39777;DHT22;25453;48.162;14.510;2022-08-18T13:49:22;33.90;38.50
39777;DHT22;25453;48.162;14.510;2022-08-18T13:51:56;33.90;38.30
39777;DHT22;25453;48.162;14.510;2022-08-18T13:54:29;33.80;38.30
39777;DHT22;25453;48.162;14.510;2022-08-18T13:57:05;33.50;38.40
39777;DHT22;25453;48.162;14.510;2022-08-18T13:59:33;33.30;38.60
39777;DHT22;25453;48.162;14.510;2022-08-18T14:02:12;33.00;39.00
39777;DHT22;25453;48.162;14.510;2022-08-18T14:04:39;32.70;39.20
39777;DHT22;25453;48.162;14.510;2022-08-18T14:07:17;32.50;39.60
39777;DHT22;25453;48.162;14.510;2022-08-18T14:09:53;32.30;40.20
39777;DHT22;25453;48.162;14.510;2022-08-18T14:12:37;32.20;40.50
39777;DHT22;25453;48.162;14.510;2022-08-18T14:15:18;32.10;41.00
39777;DHT22;25453;48.162;14.510;2022-08-18T14:17:53;32.00;41.40
39777;DHT22;25453;48.162;14.510;2022-08-18T14:20:24;31.90;41.70
39777;DHT22;25453;48.162;14.510;2022-08-18T14:23:16;31.70;42.00
39777;DHT22;25453;48.162;14.510;2022-08-18T14:26:19;31.60;42.40
39777;DHT22;25453;48.162;14.510;2022-08-18T14:29:15;31.50;42.60
39777;DHT22;25453;48.162;14.510;2022-08-18T14:32:10;31.30;42.90
39777;DHT22;25453;48.162;14.510;2022-08-18T14:34:43;31.20;43.30
39777;DHT22;25453;48.162;14.510;2022-08-18T14:37:26;31.10;43.50
39777;DHT22;25453;48.162;14.510;2022-08-18T14:40:00;31.00;43.70
39777;DHT22;25453;48.162;14.510;2022-08-18T14:42:28;31.00;44.00
39777;DHT22;25453;48.162;14.510;2022-08-18T14:45:20;30.90;44.30
39777;DHT22;25453;48.162;14.510;2022-08-18T14:48:00;30.80;44.60
39777;DHT22;25453;48.162;14.510;2022-08-18T14:50:37;30.70;45.00
39777;DHT22;25453;48.162;14.510;2022-08-18T14:53:15;30.50;45.00
39777;DHT22;25453;48.162;14.510;2022-08-18T14:55:47;30.30;45.60
39777;DHT22;25453;48.162;14.510;2022-08-18T14:58:31;30.10;48.00
39777;DHT22;25453;48.162;14.510;2022-08-18T15:01:32;29.30;53.00
39777;DHT22;25453;48.162;14.510;2022-08-18T15:04:15;28.00;55.40
39777;DHT22;25453;48.162;14.510;2022-08-18T15:06:56;27.20;58.60
39777;DHT22;25453;48.162;14.510;2022-08-18T15:09:35;26.70;61.20
39777;DHT22;25453;48.162;14.510;2022-08-18T15:12:03;26.30;63.60
39777;DHT22;25453;48.162;14.510;2022-08-18T15:14:40;26.20;67.30
39777;DHT22;25453;48.162;14.510;2022-08-18T15:17:08;26.00;68.40
39777;DHT22;25453;48.162;14.510;2022-08-18T15:19:45;25.90;68.70
39777;DHT22;25453;48.162;14.510;2022-08-18T15:22:27;25.80;69.60
39777;DHT22;25453;48.162;14.510;2022-08-18T15:25:19;25.70;70.70
39777;DHT22;25453;48.162;14.510;2022-08-18T15:28:07;25.60;71.00
39777;DHT22;25453;48.162;14.510;2022-08-18T15:30:45;25.50;71.80
39777;DHT22;25453;48.162;14.510;2022-08-18T15:33:17;25.50;72.30
39777;DHT22;25453;48.162;14.510;2022-08-18T15:35:58;25.60;72.70
39777;DHT22;25453;48.162;14.510;2022-08-18T15:38:42;25.60;73.20
39777;DHT22;25453;48.162;14.510;2022-08-18T15:41:27;25.60;73.20
39777;DHT22;25453;48.162;14.510;2022-08-18T15:44:10;25.60;73.50
39777;DHT22;25453;48.162;14.510;2022-08-18T15:46:43;25.60;73.70
39777;DHT22;25453;48.162;14.510;2022-08-18T15:49:18;25.50;73.80
39777;DHT22;25453;48.162;14.510;2022-08-18T15:51:59;25.50;74.00
39777;DHT22;25453;48.162;14.510;2022-08-18T15:54:26;25.40;73.70
39777;DHT22;25453;48.162;14.510;2022-08-18T15:57:00;25.30;72.90
39777;DHT22;25453;48.162;14.510;2022-08-18T15:59:30;25.20;72.40
39777;DHT22;25453;48.162;14.510;2022-08-18T16:02:06;25.00;72.80
39777;DHT22;25453;48.162;14.510;2022-08-18T16:04:49;24.90;73.20
39777;DHT22;25453;48.162;14.510;2022-08-18T16:07:23;24.80;73.90
39777;DHT22;25453;48.162;14.510;2022-08-18T16:10:18;24.70;74.10
39777;DHT22;25453;48.162;14.510;2022-08-18T16:12:52;24.70;74.40
39777;DHT22;25453;48.162;14.510;2022-08-18T16:15:27;24.80;74.70
39777;DHT22;25453;48.162;14.510;2022-08-18T16:17:56;24.90;74.80
39777;DHT22;25453;48.162;14.510;2022-08-18T16:20:30;25.00;74.70
39777;DHT22;25453;48.162;14.510;2022-08-18T16:22:58;25.10;74.50
39777;DHT22;25453;48.162;14.510;2022-08-18T16:25:33;25.10;74.10
39777;DHT22;25453;48.162;14.510;2022-08-18T16:28:04;25.10;74.00
39777;DHT22;25453;48.162;14.510;2022-08-18T16:30:39;25.20;73.70
39777;DHT22;25453;48.162;14.510;2022-08-18T16:33:07;25.30;73.60
39777;DHT22;25453;48.162;14.510;2022-08-18T16:35:41;25.20;73.20
39777;DHT22;25453;48.162;14.510;2022-08-18T16:38:10;25.20;72.40
39777;DHT22;25453;48.162;14.510;2022-08-18T16:40:44;25.20;71.90
39777;DHT22;25453;48.162;14.510;2022-08-18T16:43:12;25.10;72.10
39777;DHT22;25453;48.162;14.510;2022-08-18T16:45:47;25.10;72.10
39777;DHT22;25453;48.162;14.510;2022-08-18T16:48:16;25.20;72.10
39777;DHT22;25453;48.162;14.510;2022-08-18T16:50:49;25.20;71.90
39777;DHT22;25453;48.162;14.510;2022-08-18T16:53:23;25.30;71.90
39777;DHT22;25453;48.162;14.510;2022-08-18T16:56:10;25.30;71.90
39777;DHT22;25453;48.162;14.510;2022-08-18T16:58:37;25.30;71.90
39777;DHT22;25453;48.162;14.510;2022-08-18T17:01:33;25.30;71.50
39777;DHT22;25453;48.162;14.510;2022-08-18T17:04:19;25.30;70.90
39777;DHT22;25453;48.162;14.510;2022-08-18T17:07:01;25.20;70.90
39777;DHT22;25453;48.162;14.510;2022-08-18T17:09:37;25.10;70.90
39777;DHT22;25453;48.162;14.510;2022-08-18T17:12:05;25.10;71.00
39777;DHT22;25453;48.162;14.510;2022-08-18T17:14:39;25.00;70.40
39777;DHT22;25453;48.162;14.510;2022-08-18T17:17:17;25.00;70.70
39777;DHT22;25453;48.162;14.510;2022-08-18T17:19:45;25.00;70.80
39777;DHT22;25453;48.162;14.510;2022-08-18T17:22:19;25.00;70.60
39777;DHT22;25453;48.162;14.510;2022-08-18T17:24:46;25.00;70.50
39777;DHT22;25453;48.162;14.510;2022-08-18T17:27:21;25.10;70.60
39777;DHT22;25453;48.162;14.510;2022-08-18T17:30:16;25.10;70.60
39777;DHT22;25453;48.162;14.510;2022-08-18T17:32:52;25.10;70.20
39777;DHT22;25453;48.162;14.510;2022-08-18T17:35:29;25.10;70.10
39777;DHT22;25453;48.162;14.510;2022-08-18T17:38:07;25.00;70.00
39777;DHT22;25453;48.162;14.510;2022-08-18T17:40:39;25.00;69.70
39777;DHT22;25453;48.162;14.510;2022-08-18T17:43:19;24.90;69.00
39777;DHT22;25453;48.162;14.510;2022-08-18T17:46:37;24.80;69.10
39777;DHT22;25453;48.162;14.510;2022-08-18T17:48:48;24.70;69.50
39777;DHT22;25453;48.162;14.510;2022-08-18T17:51:36;24.70;69.70
39777;DHT22;25453;48.162;14.510;2022-08-18T17:54:27;24.70;69.60
39777;DHT22;25453;48.162;14.510;2022-08-18T17:57:00;24.70;69.50
39777;DHT22;25453;48.162;14.510;2022-08-18T17:59:40;24.70;69.40
39777;DHT22;25453;48.162;14.510;2022-08-18T18:02:19;24.70;69.50
39777;DHT22;25453;48.162;14.510;2022-08-18T18:04:59;24.60;69.50
39777;DHT22;25453;48.162;14.510;2022-08-18T18:10:22;24.50;69.50
39777;DHT22;25453;48.162;14.510;2022-08-18T18:13:05;24.40;69.50
39777;DHT22;25453;48.162;14.510;2022-08-18T18:15:35;24.40;69.60
39777;DHT22;25453;48.162;14.510;2022-08-18T18:20:56;24.40;69.70